Time;durP1;ratioP1;P1;durP2;ratioP2;P2;SDS_P1;SDS_P2;PMS_P1;PMS_P2;Temp;Humidity;BMP_temperature;BMP_pressure;BME280_temperature;BME280_humidity;BME280_pressure;Samples;Min_cycle;Max_cycle;Signal;HPM_P1;HPM_P2
2021/10/15 00:01:14;;;;;;;22.17;14.13;;;;;;;6.41;84.43;100459.91;1821942;77;21010;-75
2021/10/15 00:03:40;;;;;;;18.02;13.80;;;;;;;6.37;84.55;100460.02;1818952;79;21029;-72
2021/10/15 00:06:06;;;;;;;20.37;14.58;;;;;;;6.32;84.73;100460.63;1794431;78;20967;-71
2021/10/15 00:08:33;;;;;;;20.50;16.45;;;;;;;6.32;84.91;100461.13;1796561;78;21052;-75
2021/10/15 00:10:59;;;;;;;21.07;14.80;;;;;;;6.30;84.97;100456.49;1822092;78;21272;-72
2021/10/15 00:13:25;;;;;;;21.40;15.88;;;;;;;6.30;85.02;100457.83;1796759;78;20993;-73
2021/10/15 00:15:51;;;;;;;22.62;15.23;;;;;;;6.30;85.03;100458.66;1820436;78;21010;-72
2021/10/15 00:18:18;;;;;;;18.87;15.25;;;;;;;6.30;85.04;100460.50;1816043;79;21010;-71
2021/10/15 00:20:44;;;;;;;16.93;13.18;;;;;;;6.29;85.01;100457.52;1818568;78;21018;-71
2021/10/15 00:23:11;;;;;;;20.80;15.30;;;;;;;6.25;84.90;100452.27;1770001;78;22222;-82
2021/10/15 00:25:37;;;;;;;23.22;15.03;;;;;;;6.21;84.94;100459.05;1795892;78;21034;-82
2021/10/15 00:28:04;;;;;;;19.00;15.18;;;;;;;6.16;85.14;100446.30;1764365;79;20912;-80
2021/10/15 00:30:30;;;;;;;29.30;16.40;;;;;;;6.20;85.25;100448.88;1815513;78;20959;-80
2021/10/15 00:32:57;;;;;;;20.62;15.90;;;;;;;6.24;85.11;100447.95;1790437;79;21057;-85
2021/10/15 00:35:23;;;;;;;22.45;13.98;;;;;;;6.26;85.04;100437.90;1815598;79;21107;-83
2021/10/15 00:37:50;;;;;;;17.23;14.15;;;;;;;6.25;84.93;100446.92;1815333;79;20958;-83
2021/10/15 00:40:17;;;;;;;24.80;16.65;;;;;;;6.21;84.84;100441.69;1818338;78;20967;-81
2021/10/15 00:42:44;;;;;;;18.20;14.63;;;;;;;6.14;84.92;100445.67;1816501;79;21779;-77
2021/10/15 00:45:10;;;;;;;18.90;13.93;;;;;;;6.10;85.15;100435.09;1791823;78;21038;-75
2021/10/15 00:47:37;;;;;;;24.60;15.75;;;;;;;6.07;85.28;100437.66;1816932;78;22306;-77
2021/10/15 00:50:04;;;;;;;21.62;15.53;;;;;;;6.07;85.40;100436.84;1790966;79;21515;-75
2021/10/15 00:52:32;;;;;;;24.87;16.50;;;;;;;6.10;85.57;100438.58;1815890;79;20958;-76
2021/10/15 00:54:59;;;;;;;19.00;14.80;;;;;;;6.18;85.74;100439.44;1816039;79;21531;-74
2021/10/15 00:57:25;;;;;;;20.15;14.30;;;;;;;6.21;85.59;100437.17;1795403;78;21311;-76
2021/10/15 00:59:53;;;;;;;17.50;13.93;;;;;;;6.22;85.45;100442.00;1821479;78;21518;-75
2021/10/15 01:02:19;;;;;;;27.75;16.50;;;;;;;6.19;85.40;100431.73;1790016;80;21015;-77
2021/10/15 01:04:45;;;;;;;22.25;16.10;;;;;;;6.16;85.46;100440.13;1789779;80;21023;-76
2021/10/15 01:07:12;;;;;;;24.92;16.32;;;;;;;6.11;85.44;100437.56;1812807;78;21038;-78
2021/10/15 01:09:39;;;;;;;25.15;16.57;;;;;;;6.10;85.50;100435.09;1796600;78;21046;-77
2021/10/15 01:12:07;;;;;;;21.77;15.85;;;;;;;6.09;85.51;100441.48;1790046;78;21128;-75
2021/10/15 01:14:33;;;;;;;21.90;15.30;;;;;;;6.06;85.44;100439.19;1792603;79;21006;-74
2021/10/15 01:17:02;;;;;;;25.32;18.60;;;;;;;6.04;85.53;100438.59;1795664;78;21089;-74
2021/10/15 01:19:29;;;;;;;27.15;16.93;;;;;;;6.02;85.49;100440.63;1821088;78;21044;-73
2021/10/15 01:22:05;;;;;;;21.82;17.70;;;;;;;6.06;85.61;100442.69;1793142;79;20986;-74
2021/10/15 01:24:35;;;;;;;23.20;17.73;;;;;;;6.11;85.46;100440.23;1791116;79;22266;-76
2021/10/15 01:27:08;;;;;;;24.35;17.60;;;;;;;6.11;85.21;100440.74;1816124;78;21495;-74
2021/10/15 01:29:35;;;;;;;23.10;16.95;;;;;;;6.05;84.95;100440.21;1790948;79;20995;-75
2021/10/15 01:32:04;;;;;;;31.42;18.35;;;;;;;5.97;85.00;100439.07;1783070;79;21070;-72
2021/10/15 01:34:32;;;;;;;26.87;17.48;;;;;;;5.95;85.04;100436.59;1804273;79;20946;-74
2021/10/15 01:36:58;;;;;;;27.40;16.73;;;;;;;5.93;85.01;100433.83;1780610;79;21496;-76
2021/10/15 01:39:24;;;;;;;21.07;15.00;;;;;;;5.94;85.22;100428.30;1802438;79;21002;-78
2021/10/15 01:41:50;;;;;;;23.55;17.50;;;;;;;5.99;85.32;100423.69;1783681;79;21047;-72
2021/10/15 01:44:17;;;;;;;29.63;18.62;;;;;;;5.99;85.24;100428.52;1804678;79;21547;-72
2021/10/15 01:46:44;;;;;;;27.42;18.55;;;;;;;5.98;85.22;100422.03;1781354;79;21024;-74
2021/10/15 01:49:12;;;;;;;25.30;17.55;;;;;;;5.95;85.17;100423.24;1798341;79;21128;-74
2021/10/15 01:51:38;;;;;;;33.08;19.52;;;;;;;5.94;85.07;100425.62;1798097;79;21066;-74
2021/10/15 01:54:06;;;;;;;25.73;17.93;;;;;;;5.86;84.80;100426.27;1787192;79;20954;-74
2021/10/15 01:56:38;;;;;;;29.52;20.12;;;;;;;5.77;84.91;100428.30;1791331;79;21066;-73
2021/10/15 01:59:06;;;;;;;30.55;20.97;;;;;;;5.76;85.14;100430.65;1799931;79;21487;-71
2021/10/15 02:01:33;;;;;;;33.08;20.35;;;;;;;5.78;85.32;100429.12;1798560;79;21437;-73
2021/10/15 02:03:59;;;;;;;31.57;20.15;;;;;;;5.81;85.31;100427.37;1791321;79;21565;-72
2021/10/15 02:06:26;;;;;;;29.72;19.20;;;;;;;5.82;85.39;100423.69;1788846;79;21682;-72
2021/10/15 02:08:52;;;;;;;27.82;18.20;;;;;;;5.78;85.21;100428.62;1797936;79;21540;-72
2021/10/15 02:11:19;;;;;;;30.00;20.08;;;;;;;5.71;85.09;100431.76;1804639;79;20995;-73
2021/10/15 02:13:45;;;;;;;26.68;18.00;;;;;;;5.60;85.16;100431.84;1784378;79;21035;-73
2021/10/15 02:16:13;;;;;;;24.32;16.70;;;;;;;5.50;85.32;100435.90;1804072;79;21559;-73
2021/10/15 02:18:39;;;;;;;32.25;19.77;;;;;;;5.40;85.48;100438.11;1792799;79;21543;-74
2021/10/15 02:21:05;;;;;;;33.55;19.25;;;;;;;5.30;85.61;100437.64;1785103;79;21062;-72
2021/10/15 02:23:32;;;;;;;24.23;17.30;;;;;;;5.24;85.93;100441.91;1793350;79;21070;-72
2021/10/15 02:25:58;;;;;;;27.50;18.75;;;;;;;5.22;86.23;100440.80;1784012;79;21030;-74
2021/10/15 02:28:25;;;;;;;35.03;20.08;;;;;;;5.19;86.37;100445.67;1772102;80;20983;-72
2021/10/15 02:30:52;;;;;;;36.35;21.12;;;;;;;5.19;86.61;100449.67;1771258;80;21031;-71
2021/10/15 02:33:18;;;;;;;46.23;30.20;;;;;;;5.21;86.84;100450.31;1735180;80;21054;-73
2021/10/15 02:35:45;;;;;;;38.00;26.45;;;;;;;5.21;86.92;100451.14;1775638;80;21047;-73
2021/10/15 02:38:11;;;;;;;38.60;24.15;;;;;;;5.19;86.90;100445.17;1801547;79;21114;-72
2021/10/15 02:40:37;;;;;;;41.83;23.55;;;;;;;5.16;86.88;100444.24;1807212;79;21029;-74
2021/10/15 02:43:04;;;;;;;44.40;23.50;;;;;;;5.12;86.99;100438.16;1778727;79;20991;-73
2021/10/15 02:45:32;;;;;;;32.28;19.35;;;;;;;5.08;87.12;100436.91;1778048;79;21030;-73
2021/10/15 02:47:58;;;;;;;39.33;23.57;;;;;;;5.06;87.29;100435.77;1807253;79;20999;-73
2021/10/15 02:50:24;;;;;;;33.95;20.72;;;;;;;5.04;87.50;100435.12;1807392;79;21018;-74
2021/10/15 02:52:50;;;;;;;32.95;21.73;;;;;;;5.10;87.71;100435.69;1807303;79;21606;-73
2021/10/15 02:55:17;;;;;;;34.50;21.73;;;;;;;5.12;87.66;100426.99;1807492;79;21507;-74
2021/10/15 02:57:44;;;;;;;34.18;23.12;;;;;;;5.13;87.59;100422.48;1799728;79;20957;-73
2021/10/15 03:00:12;;;;;;;38.55;21.12;;;;;;;5.09;87.52;100428.70;1796694;79;21556;-73
2021/10/15 03:02:39;;;;;;;40.50;22.02;;;;;;;5.06;87.56;100425.10;1775629;80;20905;-74
2021/10/15 03:05:06;;;;;;;38.53;22.87;;;;;;;4.99;87.51;100428.77;1747428;80;21559;-73
2021/10/15 03:07:34;;;;;;;30.20;21.35;;;;;;;4.92;87.64;100419.38;1764361;79;21571;-73
2021/10/15 03:10:02;;;;;;;33.67;20.70;;;;;;;4.90;87.91;100419.23;1807627;79;20979;-73
2021/10/15 03:12:28;;;;;;;36.98;20.00;;;;;;;4.89;88.07;100422.95;1807418;79;20980;-71
2021/10/15 03:14:57;;;;;;;28.20;18.30;;;;;;;4.89;88.08;100434.94;1807488;79;20951;-74
2021/10/15 03:17:23;;;;;;;26.00;18.23;;;;;;;4.88;88.01;100429.29;1776308;79;21029;-75
2021/10/15 03:19:49;;;;;;;29.80;20.23;;;;;;;4.81;88.05;100424.73;1799838;79;20960;-75
2021/10/15 03:22:15;;;;;;;28.50;20.48;;;;;;;4.72;88.05;100427.23;1802570;79;20993;-75
2021/10/15 03:24:42;;;;;;;25.85;20.60;;;;;;;4.64;88.20;100423.89;1807938;79;21000;-75
2021/10/15 03:27:08;;;;;;;33.00;19.85;;;;;;;4.57;88.34;100427.00;1777966;79;20998;-75
2021/10/15 03:29:34;;;;;;;33.40;21.90;;;;;;;4.52;88.69;100430.75;1778530;79;20896;-75
2021/10/15 03:32:02;;;;;;;29.80;19.82;;;;;;;4.51;88.94;100433.12;1781526;79;20959;-76
2021/10/15 03:34:29;;;;;;;30.92;19.17;;;;;;;4.52;89.19;100432.08;1797339;79;21062;-73
2021/10/15 03:36:55;;;;;;;34.88;19.67;;;;;;;4.53;89.32;100428.41;1795392;79;21027;-74
2021/10/15 03:39:22;;;;;;;25.82;17.32;;;;;;;4.52;89.41;100432.08;1774769;80;21973;-75
2021/10/15 03:41:48;;;;;;;28.05;18.10;;;;;;;4.51;89.54;100431.25;1797858;79;20931;-76
2021/10/15 03:44:14;;;;;;;33.55;19.30;;;;;;;4.50;89.64;100436.79;1786507;79;21579;-74
2021/10/15 03:46:41;;;;;;;45.78;21.10;;;;;;;4.48;89.87;100427.65;1784324;79;20968;-76
2021/10/15 03:49:07;;;;;;;32.60;21.27;;;;;;;4.48;89.87;100427.65;1800485;79;21021;-75
2021/10/15 03:51:33;;;;;;;39.40;22.70;;;;;;;4.48;89.90;100428.16;1806807;79;21124;-75
2021/10/15 03:54:00;;;;;;;33.95;20.43;;;;;;;4.48;89.90;100428.16;1804372;79;20986;-75
2021/10/15 03:56:28;;;;;;;39.60;21.07;;;;;;;4.53;90.17;100425.23;1775927;79;41926;-74
2021/10/15 03:58:54;;;;;;;39.05;21.62;;;;;;;4.60;90.29;100430.63;1800202;79;20965;-74
2021/10/15 04:01:21;;;;;;;49.10;21.95;;;;;;;4.68;90.29;100429.14;1799124;79;20961;-77
2021/10/15 04:03:47;;;;;;;48.17;22.70;;;;;;;4.74;90.16;100438.53;1778864;79;21054;-79
2021/10/15 04:06:14;;;;;;;38.20;21.27;;;;;;;4.76;89.90;100445.80;1804028;79;41861;-74
2021/10/15 04:08:40;;;;;;;45.52;23.42;;;;;;;4.74;89.80;100435.04;1787303;79;21071;-75
2021/10/15 04:11:06;;;;;;;43.65;20.70;;;;;;;4.74;89.80;100435.04;1789063;79;20986;-76
2021/10/15 04:13:33;;;;;;;49.03;21.30;;;;;;;4.78;89.81;100454.95;1801774;79;20935;-75
2021/10/15 04:16:04;;;;;;;32.33;22.27;;;;;;;4.78;89.81;100454.95;1806697;79;21046;-75
2021/10/15 04:18:29;;;;;;;32.83;21.05;;;;;;;4.79;89.69;100458.77;1802503;79;20951;-74
2021/10/15 04:20:56;;;;;;;32.60;20.88;;;;;;;4.86;89.68;100451.30;1774802;80;21361;-75
2021/10/15 04:23:22;;;;;;;33.05;21.87;;;;;;;4.91;89.58;100451.04;1795642;79;21032;-75
2021/10/15 04:25:49;;;;;;;39.95;21.25;;;;;;;4.94;89.35;100448.52;1806933;79;21003;-76
2021/10/15 04:28:16;;;;;;;32.93;22.65;;;;;;;4.92;89.05;100449.20;1777869;80;21810;-76
2021/10/15 04:30:43;;;;;;;27.93;20.72;;;;;;;4.87;88.80;100448.96;1775037;80;21039;-76
2021/10/15 04:33:09;;;;;;;34.25;22.75;;;;;;;4.82;88.69;100449.03;1797960;79;21063;-77
2021/10/15 04:35:36;;;;;;;33.18;20.48;;;;;;;4.76;88.52;100462.30;1801341;79;20936;-75
2021/10/15 04:38:02;;;;;;;26.90;21.23;;;;;;;4.70;88.53;100457.23;1770636;80;21079;-75
2021/10/15 04:40:28;;;;;;;31.27;21.40;;;;;;;4.67;88.49;100450.96;1766896;80;21002;-78
2021/10/15 04:42:56;;;;;;;39.27;21.07;;;;;;;4.68;88.54;100458.45;1802395;79;20994;-79
2021/10/15 04:45:23;;;;;;;43.48;23.90;;;;;;;4.69;88.54;100454.27;1807654;79;21570;-77
2021/10/15 04:47:49;;;;;;;41.80;26.23;;;;;;;4.71;88.59;100458.05;1772277;80;20975;-79
2021/10/15 04:50:16;;;;;;;34.65;22.15;;;;;;;4.73;88.64;100462.70;1795976;79;21055;-78
2021/10/15 04:52:42;;;;;;;35.33;20.90;;;;;;;4.72;88.65;100460.54;1795996;79;21063;-77
2021/10/15 04:55:09;;;;;;;30.57;18.55;;;;;;;4.70;88.56;100462.56;1806413;79;21524;-78
2021/10/15 04:57:36;;;;;;;46.90;21.23;;;;;;;4.68;88.67;100465.94;1806903;79;20994;-74
2021/10/15 05:00:05;;;;;;;43.42;21.97;;;;;;;4.70;88.83;100467.09;1807383;79;21031;-76
2021/10/15 05:02:40;;;;;;;39.20;23.05;;;;;;;4.77;89.07;100467.95;1753918;79;20980;-75
2021/10/15 05:05:08;;;;;;;37.50;21.75;;;;;;;4.83;89.09;100475.18;1807675;79;20982;-76
2021/10/15 05:07:36;;;;;;;38.13;20.62;;;;;;;4.86;88.91;100474.78;1803143;79;20931;-73
2021/10/15 05:10:04;;;;;;;30.60;20.90;;;;;;;4.88;88.66;100478.59;1766627;80;21066;-73
2021/10/15 05:12:30;;;;;;;44.70;22.95;;;;;;;4.86;88.51;100472.62;1773444;79;21037;-77
2021/10/15 05:14:58;;;;;;;48.98;23.55;;;;;;;4.83;88.47;100474.67;1807389;79;20977;-75
2021/10/15 05:17:24;;;;;;;39.58;23.95;;;;;;;4.81;88.39;100474.03;1806837;79;21505;-77
2021/10/15 05:19:50;;;;;;;39.45;24.40;;;;;;;4.77;88.26;100466.11;1807134;79;20975;-76
2021/10/15 05:22:17;;;;;;;37.93;23.25;;;;;;;4.76;88.28;100469.79;1779293;79;21001;-76
2021/10/15 05:24:44;;;;;;;28.90;19.35;;;;;;;4.74;88.26;100467.02;1808532;79;21030;-73
2021/10/15 05:27:10;;;;;;;40.60;22.17;;;;;;;4.75;88.26;100473.46;1775499;79;21893;-73
2021/10/15 05:29:37;;;;;;;29.72;22.80;;;;;;;4.75;88.26;100473.46;1807513;79;21189;-76
2021/10/15 05:32:04;;;;;;;28.85;21.25;;;;;;;4.77;88.11;100482.61;1777718;79;21049;-73
2021/10/15 05:34:32;;;;;;;29.72;21.52;;;;;;;4.73;87.99;100481.34;1753182;79;21631;-75
2021/10/15 05:36:58;;;;;;;28.20;20.85;;;;;;;4.72;87.91;100489.84;1801718;79;21508;-74
2021/10/15 05:39:25;;;;;;;25.85;20.30;;;;;;;4.67;87.94;100490.11;1794393;79;20954;-76
2021/10/15 05:41:51;;;;;;;33.30;22.85;;;;;;;4.63;87.82;100492.33;1771657;80;20984;-76
2021/10/15 05:44:17;;;;;;;32.38;22.60;;;;;;;4.58;87.89;100485.42;1771440;80;20981;-75
2021/10/15 05:46:45;;;;;;;31.93;22.25;;;;;;;4.57;88.07;100483.77;1782225;79;21030;-78
2021/10/15 05:49:11;;;;;;;35.70;25.12;;;;;;;4.65;88.43;100490.82;1782388;80;21551;-77
2021/10/15 05:51:41;;;;;;;32.30;22.95;;;;;;;4.71;88.48;100488.19;1777902;79;21043;-77
2021/10/15 05:54:08;;;;;;;32.45;23.20;;;;;;;4.78;88.43;100484.27;1780795;79;21759;-79
2021/10/15 05:56:43;;;;;;;29.25;22.40;;;;;;;4.81;88.41;100482.03;1801506;79;21622;-79
2021/10/15 05:59:04;;;;;;;34.83;24.15;;;;;;;4.78;88.22;100481.59;1780204;79;20919;-79
2021/10/15 06:01:33;;;;;;;38.92;27.32;;;;;;;4.73;88.32;100483.51;1788673;79;20990;-77
2021/10/15 06:14:46;;;;;;;32.73;20.65;;;;;;;4.99;88.69;100493.53;1792658;79;22384;-77
2021/10/15 06:17:16;;;;;;;38.35;24.25;;;;;;;4.99;88.59;100490.87;1769848;80;21000;-77
2021/10/15 06:20:15;;;;;;;38.85;25.62;;;;;;;4.99;88.69;100488.73;1790052;79;21517;-83
2021/10/15 06:22:16;;;;;;;43.28;25.60;;;;;;;5.00;88.81;100481.86;1773805;79;21039;-75
2021/10/15 06:24:43;;;;;;;39.25;25.72;;;;;;;5.04;88.85;100484.45;1801955;79;20947;-76
2021/10/15 06:27:09;;;;;;;43.92;25.68;;;;;;;5.07;88.91;100481.41;1736270;82;21051;-78
2021/10/15 06:29:35;;;;;;;40.28;25.10;;;;;;;5.12;89.00;100488.83;1799213;79;21066;-75
2021/10/15 06:32:08;;;;;;;53.00;27.07;;;;;;;5.21;89.21;100487.66;1802491;79;21850;-77
2021/10/15 06:34:35;;;;;;;55.65;26.85;;;;;;;5.31;89.19;100484.63;1778300;79;21573;-76
2021/10/15 06:37:01;;;;;;;41.80;26.10;;;;;;;5.40;89.00;100488.28;1778206;79;21005;-76
2021/10/15 06:39:28;;;;;;;37.65;22.75;;;;;;;5.45;88.82;100492.52;1775852;79;20998;-75
2021/10/15 06:41:57;;;;;;;39.40;25.40;;;;;;;5.47;88.70;100497.13;1798387;79;21024;-83
2021/10/15 06:44:23;;;;;;;47.98;29.75;;;;;;;5.49;88.64;100497.77;1769548;79;21022;-80
2021/10/15 06:46:52;;;;;;;28.35;20.48;;;;;;;5.49;88.60;100495.61;1798633;79;20960;-82
2021/10/15 06:49:19;;;;;;;31.10;23.32;;;;;;;5.53;88.58;100499.52;1798300;79;21482;-82
2021/10/15 06:51:48;;;;;;;34.63;23.15;;;;;;;5.57;88.53;100490.10;1798318;79;21482;-81
2021/10/15 06:54:18;;;;;;;31.42;23.60;;;;;;;5.65;88.46;100497.45;1772605;79;20982;-81
2021/10/15 06:56:45;;;;;;;36.20;26.20;;;;;;;5.71;88.29;100499.31;1775015;79;21047;-80
2021/10/15 06:59:13;;;;;;;37.65;25.10;;;;;;;5.77;88.23;100500.36;1770449;79;21020;-80
2021/10/15 07:01:39;;;;;;;36.75;23.52;;;;;;;5.84;88.24;100490.55;1778094;79;20940;-82
2021/10/15 07:04:06;;;;;;;34.75;23.38;;;;;;;5.92;87.99;100491.73;1778107;79;21031;-84
2021/10/15 07:06:34;;;;;;;33.73;23.75;;;;;;;5.99;87.72;100495.78;1778185;79;21063;-83
2021/10/15 07:09:03;;;;;;;30.62;21.95;;;;;;;6.05;87.59;100505.63;1778185;79;21038;-80
2021/10/15 07:11:37;;;;;;;29.82;21.82;;;;;;;6.06;87.16;100488.09;1778433;79;20963;-75
2021/10/15 07:14:01;;;;;;;30.27;19.60;;;;;;;6.15;87.08;100492.72;1806502;79;20997;-75
2021/10/15 07:16:29;;;;;;;31.77;22.75;;;;;;;6.24;86.84;100490.17;1801438;79;21559;-77
2021/10/15 07:18:55;;;;;;;29.75;21.85;;;;;;;6.30;86.37;100487.22;1801544;79;21055;-78
2021/10/15 07:21:22;;;;;;;29.30;21.60;;;;;;;6.39;86.24;100490.00;1798647;79;22122;-79
2021/10/15 07:23:52;;;;;;;26.27;18.37;;;;;;;6.49;85.95;100491.27;1809280;79;21607;-81
2021/10/15 07:26:19;;;;;;;28.62;18.10;;;;;;;6.59;85.54;100485.52;1777633;79;20974;-78
2021/10/15 07:28:45;;;;;;;32.73;21.33;;;;;;;6.67;84.36;100490.66;1775849;80;21004;-77
2021/10/15 07:31:12;;;;;;;26.02;19.30;;;;;;;6.72;83.99;100484.17;1789955;79;21604;-75
2021/10/15 07:33:38;;;;;;;29.95;21.35;;;;;;;6.81;83.38;100480.81;1777603;79;21073;-75
2021/10/15 07:36:05;;;;;;;27.42;20.32;;;;;;;6.88;82.54;100481.62;1780741;79;21001;-77
2021/10/15 07:38:31;;;;;;;32.65;22.93;;;;;;;6.95;82.22;100481.11;1772825;78;21102;-82
2021/10/15 07:40:58;;;;;;;35.65;23.12;;;;;;;7.05;81.75;100486.84;1781972;78;20933;-77
2021/10/15 07:43:26;;;;;;;34.35;22.82;;;;;;;7.15;81.07;100482.41;1799570;78;20976;-79
2021/10/15 07:45:52;;;;;;;35.90;22.77;;;;;;;7.22;80.07;100488.58;1771021;79;21360;-79
2021/10/15 07:48:19;;;;;;;41.10;24.02;;;;;;;7.32;79.57;100479.61;1780206;79;21489;-77
2021/10/15 07:50:45;;;;;;;37.65;22.67;;;;;;;7.40;78.59;100479.38;1793153;79;21055;-80
2021/10/15 07:53:14;;;;;;;37.28;22.17;;;;;;;7.48;78.73;100480.51;1803901;79;21020;-77
2021/10/15 07:55:41;;;;;;;26.45;20.97;;;;;;;7.59;78.07;100469.64;1802432;78;21082;-79
2021/10/15 07:58:09;;;;;;;31.42;20.77;;;;;;;7.69;77.36;100470.84;1799490;79;20910;-77
2021/10/15 08:00:38;;;;;;;25.32;19.75;;;;;;;7.79;76.87;100469.05;1798728;79;21000;-80
2021/10/15 08:03:06;;;;;;;27.67;21.20;;;;;;;7.88;75.89;100472.62;1782637;78;21552;-77
2021/10/15 08:05:33;;;;;;;28.38;19.77;;;;;;;7.98;75.62;100477.52;1797737;79;20999;-77
2021/10/15 08:08:00;;;;;;;22.48;18.40;;;;;;;8.07;75.16;100465.52;1782891;79;21018;-76
2021/10/15 08:10:26;;;;;;;27.17;18.60;;;;;;;8.17;74.81;100469.89;1800023;78;21477;-77
2021/10/15 08:12:53;;;;;;;26.37;19.37;;;;;;;8.27;74.30;100474.78;1784168;79;21073;-79
2021/10/15 08:15:19;;;;;;;28.47;18.27;;;;;;;8.35;73.88;100473.21;1800963;78;20967;-77
2021/10/15 08:17:46;;;;;;;24.07;17.92;;;;;;;8.43;73.26;100471.63;1787100;79;21489;-76
2021/10/15 08:20:14;;;;;;;33.83;19.10;;;;;;;8.49;72.31;100469.41;1795885;79;21519;-77
2021/10/15 08:22:42;;;;;;;25.80;20.20;;;;;;;8.59;72.23;100475.62;1802806;78;21199;-81
2021/10/15 08:25:08;;;;;;;21.30;18.05;;;;;;;8.69;71.33;100467.40;1798827;78;21034;-77
2021/10/15 08:27:36;;;;;;;25.92;18.85;;;;;;;8.81;71.04;100462.68;1790535;79;21575;-76
2021/10/15 08:30:03;;;;;;;25.37;20.50;;;;;;;8.91;70.70;100458.47;1781553;78;21055;-80
2021/10/15 08:32:32;;;;;;;25.02;20.30;;;;;;;9.01;70.70;100466.84;1793137;78;21630;-80
2021/10/15 08:34:58;;;;;;;21.77;16.30;;;;;;;9.11;70.23;100461.76;1802894;79;21650;-77
2021/10/15 08:37:26;;;;;;;25.32;19.30;;;;;;;9.19;68.99;100458.81;1800166;77;20944;-77
2021/10/15 08:39:53;;;;;;;21.65;16.73;;;;;;;9.28;69.31;100449.12;1802392;78;20955;-82
2021/10/15 08:42:19;;;;;;;24.72;18.57;;;;;;;9.35;68.92;100456.05;1769794;79;20985;-80
2021/10/15 08:44:46;;;;;;;22.80;17.75;;;;;;;9.44;68.70;100452.56;1786717;77;21093;-79
2021/10/15 08:47:14;;;;;;;23.95;16.27;;;;;;;9.51;68.50;100449.27;1802352;79;21573;-78
2021/10/15 08:49:43;;;;;;;21.90;17.45;;;;;;;9.58;67.68;100445.48;1786212;77;20962;-76
2021/10/15 08:52:13;;;;;;;22.77;17.45;;;;;;;9.66;68.16;100449.72;1788381;77;21472;-75
2021/10/15 08:54:45;;;;;;;21.07;16.07;;;;;;;9.75;67.93;100437.61;1821324;77;21057;-79
2021/10/15 08:57:15;;;;;;;21.02;17.48;;;;;;;9.85;67.62;100451.33;1831589;77;21536;-75
2021/10/15 08:59:47;;;;;;;22.05;17.73;;;;;;;9.93;67.19;100447.50;1825195;77;21535;-79
2021/10/15 09:02:18;;;;;;;24.30;19.15;;;;;;;10.00;65.53;100439.66;1798746;79;21132;-78
2021/10/15 09:04:53;;;;;;;23.18;16.77;;;;;;;10.05;65.59;100447.04;1798531;79;20935;-77
2021/10/15 09:07:22;;;;;;;24.45;17.80;;;;;;;10.11;65.50;100443.45;1801605;78;21014;-76
2021/10/15 09:09:56;;;;;;;23.42;17.55;;;;;;;10.18;65.63;100436.65;1812553;78;21500;-77
2021/10/15 09:12:20;;;;;;;23.40;17.12;;;;;;;10.28;65.26;100450.36;1787848;78;21027;-78
2021/10/15 09:14:48;;;;;;;26.02;16.57;;;;;;;10.33;64.75;100443.77;1832033;78;20963;-80
2021/10/15 09:17:26;;;;;;;23.87;16.15;;;;;;;10.41;63.68;100434.02;1821379;78;21535;-82
2021/10/15 09:19:55;;;;;;;21.95;16.02;;;;;;;10.49;62.98;100435.05;1783236;79;21472;-80
2021/10/15 09:22:27;;;;;;;24.80;14.93;;;;;;;10.59;62.41;100427.23;1816097;77;22272;-76
2021/10/15 09:25:07;;;;;;;17.48;13.62;;;;;;;10.69;61.65;100434.73;1776652;79;21526;-77
2021/10/15 09:27:42;;;;;;;16.45;13.13;;;;;;;10.77;61.25;100424.45;1781085;77;21485;-77
2021/10/15 09:30:13;;;;;;;17.12;13.98;;;;;;;10.89;60.79;100426.60;1789330;77;21533;-77
2021/10/15 09:32:44;;;;;;;20.05;12.47;;;;;;;11.01;59.92;100421.23;1815374;77;20980;-76
2021/10/15 09:35:14;;;;;;;15.65;12.43;;;;;;;11.10;59.73;100417.13;1806147;79;21517;-78
2021/10/15 09:37:43;;;;;;;17.95;12.80;;;;;;;11.20;59.24;100430.00;1830626;77;21175;-80
2021/10/15 09:40:22;;;;;;;13.68;10.78;;;;;;;11.28;59.01;100420.20;1802639;79;20959;-80
2021/10/15 09:42:56;;;;;;;11.10;9.98;;;;;;;11.38;57.88;100416.38;1786614;79;20935;-79
2021/10/15 09:45:25;;;;;;;13.15;10.98;;;;;;;11.49;56.79;100421.46;1798913;77;20987;-79
2021/10/15 09:47:55;;;;;;;13.93;9.10;;;;;;;11.58;56.37;100406.55;1825212;77;21109;-80
2021/10/15 09:50:23;;;;;;;18.25;9.70;;;;;;;11.66;55.43;100400.25;1799759;79;21946;-80
2021/10/15 09:52:52;;;;;;;14.55;10.35;;;;;;;11.71;53.98;100395.50;1807390;79;20987;-77
2021/10/15 09:55:38;;;;;;;13.30;10.53;;;;;;;11.77;54.58;100405.36;1802303;77;21031;-84
2021/10/15 09:58:19;;;;;;;13.28;10.68;;;;;;;11.79;53.74;100395.98;1798058;79;21477;-79
2021/10/15 10:00:49;;;;;;;11.80;10.58;;;;;;;11.81;53.90;100401.11;1813216;77;21004;-81
2021/10/15 10:03:19;;;;;;;11.93;9.13;;;;;;;11.85;53.93;100383.40;1814027;77;21038;-81
2021/10/15 10:05:47;;;;;;;11.40;8.58;;;;;;;11.90;53.82;100376.76;1725305;82;20924;-82
2021/10/15 10:08:15;;;;;;;13.38;9.83;;;;;;;11.98;53.46;100368.83;1735542;82;20965;-86
2021/10/15 10:10:43;;;;;;;11.93;10.30;;;;;;;12.04;52.72;100375.92;1711629;82;21474;-83
2021/10/15 10:13:14;;;;;;;11.70;8.80;;;;;;;12.08;52.45;100377.09;1733194;82;21073;-77
2021/10/15 10:15:43;;;;;;;11.75;9.90;;;;;;;12.12;52.63;100369.63;1741604;81;21766;-82
2021/10/15 10:18:26;;;;;;;12.00;8.98;;;;;;;12.21;52.82;100359.25;1779742;78;20979;-76
2021/10/15 10:21:06;;;;;;;11.05;9.45;;;;;;;12.32;52.04;100360.25;1816965;77;21590;-82
2021/10/15 10:23:49;;;;;;;10.20;9.15;;;;;;;12.45;52.02;100368.01;1820994;77;21523;-75
2021/10/15 10:26:20;;;;;;;11.15;7.65;;;;;;;12.58;50.59;100365.79;1795059;79;21045;-80
2021/10/15 10:28:44;;;;;;;9.08;7.30;;;;;;;12.67;49.25;100363.48;1797373;77;21112;-75
2021/10/15 10:31:22;;;;;;;9.90;8.45;;;;;;;12.74;48.73;100356.05;1764899;78;20982;-78
2021/10/15 10:33:59;;;;;;;7.87;6.87;;;;;;;12.81;48.35;100362.61;1791917;77;20911;-77
2021/10/15 10:36:28;;;;;;;8.23;5.87;;;;;;;12.89;47.89;100353.58;1771667;79;22263;-78
2021/10/15 10:38:54;;;;;;;7.80;6.55;;;;;;;12.94;47.37;100346.08;1806357;77;20995;-80
2021/10/15 10:41:24;;;;;;;8.13;7.33;;;;;;;13.02;47.32;100346.46;1778697;79;21547;-78
2021/10/15 10:43:56;;;;;;;11.20;6.12;;;;;;;13.13;46.23;100333.13;1810044;79;21564;-77
2021/10/15 10:46:25;;;;;;;8.90;6.22;;;;;;;13.20;46.17;100340.48;1806873;79;20940;-76
2021/10/15 10:48:57;;;;;;;7.50;6.08;;;;;;;13.32;46.45;100338.50;1772212;79;21156;-79
2021/10/15 10:51:29;;;;;;;6.45;5.33;;;;;;;13.47;45.19;100335.45;1796912;77;21571;-81
2021/10/15 10:54:23;;;;;;;10.43;6.08;;;;;;;13.57;44.21;100342.03;1821564;77;22278;-82
2021/10/15 10:56:52;;;;;;;7.83;5.30;;;;;;;13.62;44.79;100334.77;1793289;79;21014;-82
2021/10/15 10:59:29;;;;;;;5.60;4.78;;;;;;;13.70;44.11;100331.64;1790564;80;20979;-80
2021/10/15 11:02:04;;;;;;;9.40;7.03;;;;;;;13.76;43.73;100334.68;1801489;79;21503;-82
2021/10/15 11:04:42;;;;;;;7.85;6.90;;;;;;;13.81;44.05;100321.75;1805995;77;21040;-80
2021/10/15 11:07:22;;;;;;;9.10;5.75;;;;;;;13.86;43.80;100327.20;1816737;77;21076;-73
2021/10/15 11:09:58;;;;;;;11.12;6.95;;;;;;;13.94;43.96;100328.91;1773890;78;21489;-80
2021/10/15 11:12:34;;;;;;;8.53;6.85;;;;;;;14.05;43.48;100323.59;1790266;77;20960;-82
2021/10/15 11:15:08;;;;;;;11.90;4.97;;;;;;;14.14;43.42;100322.05;1816031;77;20964;-81
2021/10/15 11:17:47;;;;;;;9.08;7.15;;;;;;;14.16;42.22;100315.82;1806510;77;20937;-81
2021/10/15 11:20:30;;;;;;;9.60;5.95;;;;;;;14.16;43.02;100315.29;1812413;77;20920;-80
2021/10/15 11:23:05;;;;;;;9.93;7.42;;;;;;;14.21;43.15;100316.69;1783179;79;20945;-76
2021/10/15 11:25:41;;;;;;;8.73;6.22;;;;;;;14.34;43.28;100318.13;1806563;77;21030;-73
2021/10/15 11:28:12;;;;;;;6.92;5.83;;;;;;;14.43;42.75;100307.16;1802878;79;20945;-74
2021/10/15 11:30:48;;;;;;;6.90;6.22;;;;;;;14.51;42.50;100304.49;1806788;77;21072;-81
2021/10/15 11:33:17;;;;;;;9.03;7.12;;;;;;;14.49;41.85;100310.16;1753953;81;21740;-78